createdAt,value
2022-08-23T00:00:41.845Z,-25.9
2022-08-23T00:02:43.426Z,-25.7
2022-08-23T00:04:53.368Z,-25.7
2022-08-23T00:06:45.598Z,-25.4
2022-08-23T00:08:48.305Z,-25.8
2022-08-23T00:10:49.046Z,-25.6
2022-08-23T00:12:50.763Z,-25.5
2022-08-23T00:14:52.449Z,-25.9
2022-08-23T00:16:54.145Z,-25.7
2022-08-23T00:18:55.280Z,-25.8
2022-08-23T00:22:57.982Z,-25.7
2022-08-23T00:24:59.731Z,-25.7
2022-08-23T00:27:01.339Z,-25.6
2022-08-23T00:29:02.920Z,-25.7
2022-08-23T00:31:04.527Z,-25.5
2022-08-23T00:33:05.972Z,-25.7
2022-08-23T00:35:06.868Z,-25.5
2022-08-23T00:37:07.895Z,-25.5
2022-08-23T00:41:10.792Z,-25.8
2022-08-23T00:43:11.793Z,-25.4
2022-08-23T00:45:13.784Z,-25.7
2022-08-23T00:47:15.164Z,-25.7
2022-08-23T00:49:16.391Z,-25.6
2022-08-23T00:51:17.774Z,-25.5
2022-08-23T00:55:21.082Z,-25.8
2022-08-23T00:57:22.931Z,-25.8
2022-08-23T00:59:23.926Z,-25.9
2022-08-23T01:01:25.391Z,-25.6
2022-08-23T01:03:26.552Z,-25.7
2022-08-23T01:05:28.218Z,-25.7
2022-08-23T01:07:29.206Z,-25.8
2022-08-23T01:09:30.830Z,-25.8
2022-08-23T01:11:32.387Z,-25.9
2022-08-23T01:13:34.093Z,-25.6
2022-08-23T01:17:36.583Z,-25.6
2022-08-23T01:19:37.985Z,-25.9
2022-08-23T01:21:41.164Z,-25.6
2022-08-23T01:23:41.411Z,-25.5
2022-08-23T01:25:42.880Z,-25.7
2022-08-23T01:27:43.843Z,-25.7
2022-08-23T01:29:45.302Z,-25.7
2022-08-23T01:31:46.982Z,-25.6
2022-08-23T01:33:48.743Z,-25.8
2022-08-23T01:35:50.188Z,-25.4
2022-08-23T01:37:52.125Z,-25.7
2022-08-23T01:39:53.433Z,-25.6
2022-08-23T01:41:54.520Z,-25.4
2022-08-23T01:43:56.344Z,-25.8
2022-08-23T01:45:58.242Z,-25.8
2022-08-23T01:47:59.536Z,-25.7
2022-08-23T01:50:00.916Z,-25.9
2022-08-23T01:52:02.011Z,-25.6
2022-08-23T01:54:03.019Z,-25.7
2022-08-23T01:56:04.165Z,-25.5
2022-08-23T01:58:05.826Z,-25.9
2022-08-23T02:00:07.484Z,-25.7
2022-08-23T02:02:08.931Z,-25.5
2022-08-23T02:04:09.847Z,-25.6
2022-08-23T02:06:11.603Z,-25.8
2022-08-23T02:10:15.132Z,-25.8
2022-08-23T02:12:16.831Z,-25.8
2022-08-23T02:14:18.506Z,-25.7
2022-08-23T02:16:19.735Z,-25.7
2022-08-23T02:20:21.790Z,-25.7
2022-08-23T02:22:22.849Z,-25.7
2022-08-23T02:24:23.978Z,-25.8
2022-08-23T02:26:30.878Z,-25.8
2022-08-23T02:28:26.962Z,-25.8
2022-08-23T02:30:28.020Z,-25.6
2022-08-23T02:36:32.244Z,-25.7
2022-08-23T02:38:33.523Z,-26
2022-08-23T02:40:34.653Z,-25.8
2022-08-23T02:42:36.042Z,-25.7
2022-08-23T02:44:37.552Z,-25.7
2022-08-23T02:46:39.196Z,-25.7
2022-08-23T02:48:40.816Z,-25.9
2022-08-23T02:52:43.640Z,-25.7
2022-08-23T02:54:45.268Z,-25.6
2022-08-23T02:56:46.445Z,-25.6
2022-08-23T02:58:47.490Z,-25.6
2022-08-23T03:04:51.977Z,-25.8
2022-08-23T03:06:53.605Z,-25.9
2022-08-23T03:08:55.389Z,-25.7
2022-08-23T03:10:56.887Z,-25.7
2022-08-23T03:12:58.289Z,-25.8
2022-08-23T03:14:59.874Z,-25.8
2022-08-23T03:17:01.551Z,-25.9
2022-08-23T03:19:02.512Z,-25.8
2022-08-23T03:21:04.440Z,-25.8
2022-08-23T03:23:06.320Z,-25.7
2022-08-23T03:25:07.346Z,-26.2
2022-08-23T03:27:08.664Z,-25.8
2022-08-23T03:29:09.793Z,-25.6
2022-08-23T03:31:10.812Z,-25.8
2022-08-23T03:33:11.881Z,-25.6
2022-08-23T03:35:15.095Z,-25.6
2022-08-23T03:37:14.053Z,-25.9
2022-08-23T03:39:15.896Z,-25.7
2022-08-23T03:41:17.406Z,-25.7
2022-08-23T03:43:19.257Z,-25.8
2022-08-23T03:45:20.904Z,-25.7
2022-08-23T03:47:22.257Z,-25.6
2022-08-23T03:51:25.778Z,-25.9
2022-08-23T03:53:27.209Z,-25.6
2022-08-23T03:55:28.665Z,-25.7
2022-08-23T03:57:30.412Z,-25.8
2022-08-23T03:59:32.271Z,-25.7
2022-08-23T04:01:34.215Z,-25.6
2022-08-23T04:03:35.906Z,-25.8
2022-08-23T04:05:37.174Z,-25.9
2022-08-23T04:07:39.052Z,-26
2022-08-23T04:09:40.867Z,-25.7
2022-08-23T04:11:42.499Z,-25.4
2022-08-23T04:13:44.033Z,-25.6
2022-08-23T04:15:45.636Z,-25.7
2022-08-23T04:19:49.250Z,-25.5
2022-08-23T04:23:51.644Z,-25.6
2022-08-23T04:25:53.190Z,-25.7
2022-08-23T04:27:54.860Z,-25.7
2022-08-23T04:29:55.977Z,-25.8
2022-08-23T04:33:59.372Z,-25.8
2022-08-23T04:36:00.341Z,-25.6
2022-08-23T04:38:02.165Z,-25.8
2022-08-23T04:40:03.299Z,-25.4
2022-08-23T04:42:04.295Z,-25.8
2022-08-23T04:44:05.761Z,-25.7
2022-08-23T04:46:06.803Z,-25.5
2022-08-23T04:48:10.501Z,-25.8
2022-08-23T04:50:09.997Z,-26
2022-08-23T04:52:12.204Z,-25.6
2022-08-23T04:56:14.074Z,-25.5
2022-08-23T04:58:15.118Z,-26.2
2022-08-23T05:00:16.367Z,-26.2
2022-08-23T05:02:17.399Z,-26.1
2022-08-23T05:04:18.839Z,-26
2022-08-23T05:06:20.225Z,-26.1
2022-08-23T05:08:21.433Z,-25.9
2022-08-23T05:10:23.383Z,-25.9
2022-08-23T05:14:25.794Z,-26.1
2022-08-23T05:16:26.781Z,-22.8
2022-08-23T05:18:27.800Z,-17.4
2022-08-23T05:20:28.875Z,-25.7
2022-08-23T05:22:30.600Z,-25.6
2022-08-23T05:24:32.051Z,-23.6
2022-08-23T05:26:33.658Z,-16.2
2022-08-23T05:28:34.899Z,-8.2
2022-08-23T05:34:39.536Z,-1.1
2022-08-23T05:36:47.570Z,-3.4
2022-08-23T05:38:42.869Z,9.6
2022-08-23T05:40:44.262Z,22.3
2022-08-23T05:42:45.425Z,25.1
2022-08-23T05:44:47.086Z,26.7
2022-08-23T05:46:48.472Z,33.3
2022-08-23T05:48:49.440Z,35.9
2022-08-23T05:50:50.907Z,38.8
2022-08-23T05:52:52.278Z,42.1
2022-08-23T05:54:53.309Z,38.7
2022-08-23T05:56:55.031Z,44.6
2022-08-23T05:58:59.223Z,48.6
2022-08-23T06:00:58.113Z,75.8
2022-08-23T06:02:59.500Z,74.9
2022-08-23T06:05:00.651Z,74.3
2022-08-23T06:07:02.420Z,73.3
2022-08-23T06:09:03.489Z,72.9
2022-08-23T06:11:04.658Z,72.3
2022-08-23T06:13:05.568Z,71.8
2022-08-23T06:15:07.381Z,70.69
2022-08-23T06:17:09.096Z,70.19
2022-08-23T06:19:10.167Z,69
2022-08-23T06:21:11.232Z,68.1
2022-08-23T06:25:13.635Z,65.8
2022-08-23T06:27:15.231Z,64.8
2022-08-23T06:29:16.963Z,63.7
2022-08-23T06:31:18.545Z,62.4
2022-08-23T06:33:19.492Z,60.4
2022-08-23T06:35:33.386Z,59.2
2022-08-23T06:37:22.268Z,58.4
2022-08-23T06:39:24.064Z,57
2022-08-23T06:41:24.970Z,56.1
2022-08-23T06:43:26.095Z,54.1
2022-08-23T06:44:09.865Z,54.2
2022-08-23T06:48:14.873Z,50.4
2022-08-23T06:50:13.581Z,49.2
2022-08-23T06:54:16.413Z,45.4
2022-08-23T06:56:17.325Z,44
2022-08-23T06:58:18.763Z,42.5
2022-08-23T07:00:22.254Z,40.5
2022-08-23T07:02:20.903Z,38.9
2022-08-23T07:04:22.494Z,37.4
2022-08-23T07:06:23.385Z,36
2022-08-23T07:08:25.034Z,35.3
2022-08-23T07:10:26.482Z,33.59
2022-08-23T07:12:27.945Z,32.5
2022-08-23T07:14:29.734Z,29.5
2022-08-23T07:16:31.146Z,28.7
2022-08-23T07:18:32.854Z,28.2
2022-08-23T07:20:34.017Z,26.3
2022-08-23T07:22:35.201Z,24.8
2022-08-23T07:24:36.531Z,22.6
2022-08-23T07:26:37.662Z,22.2
2022-08-23T07:30:43.291Z,20.7
2022-08-23T07:32:41.605Z,19.9
2022-08-23T07:34:42.569Z,17.9
2022-08-23T07:36:43.579Z,16.79
2022-08-23T07:40:45.715Z,16.1
2022-08-23T07:42:47.053Z,14.4
2022-08-23T07:44:48.449Z,11.9
2022-08-23T07:46:49.425Z,12.2
2022-08-23T07:50:57.825Z,10.1
2022-08-23T07:52:53.423Z,10
2022-08-23T07:54:55.083Z,10.6
2022-08-23T07:56:56.023Z,8.89
2022-08-23T07:58:56.808Z,-25.4
2022-08-23T08:00:57.645Z,-25.6
2022-08-23T08:02:59.183Z,-25.4
2022-08-23T08:05:00.391Z,-25.5
2022-08-23T08:07:18.031Z,-25.6
2022-08-23T08:09:03.667Z,-25.4
2022-08-23T08:11:04.739Z,-25.5
2022-08-23T08:13:05.638Z,-25.7
2022-08-23T08:15:06.688Z,-25.7
2022-08-23T08:17:08.081Z,-25.7
2022-08-23T08:19:08.875Z,-25.6
2022-08-23T08:21:09.983Z,-25.5
2022-08-23T08:23:10.812Z,-25.5
2022-08-23T08:25:12.251Z,-25.3
2022-08-23T08:27:13.157Z,-25.7
2022-08-23T08:29:14.679Z,-25.6
2022-08-23T08:31:15.497Z,-25.4
2022-08-23T08:35:18.676Z,-25.6
2022-08-23T08:37:20.279Z,-25.4
2022-08-23T08:39:21.093Z,-25.7
2022-08-23T08:41:21.902Z,-25.5
2022-08-23T08:43:23.399Z,-25.4
2022-08-23T08:45:25.235Z,-25.6
2022-08-23T08:49:28.067Z,-25.6
2022-08-23T08:51:28.912Z,-25.5
2022-08-23T08:53:30.406Z,-25.5
2022-08-23T08:55:31.412Z,-25.5
2022-08-23T08:57:32.577Z,-25.6
2022-08-23T08:59:33.480Z,-25.5
2022-08-23T09:01:35.253Z,-25.5
2022-08-23T09:03:36.839Z,-25.7
2022-08-23T09:05:37.968Z,-25.4
2022-08-23T09:07:38.970Z,-25.4
2022-08-23T09:09:40.305Z,-25.5
2022-08-23T09:11:42.074Z,-25.6
2022-08-23T09:13:46.102Z,-25.5
2022-08-23T09:15:44.689Z,-25.4
2022-08-23T09:17:46.242Z,-25.5
2022-08-23T09:21:48.475Z,-25.6
2022-08-23T09:23:58.809Z,-25.4
2022-08-23T09:25:50.876Z,-25.6
2022-08-23T09:27:52.118Z,-25.4
2022-08-23T09:29:53.351Z,-25.7
2022-08-23T09:31:54.221Z,-25.4
2022-08-23T09:33:55.128Z,-25.5
2022-08-23T09:35:56.738Z,-25.6
2022-08-23T09:37:58.024Z,-25.6
2022-08-23T09:39:59.477Z,-25.4
2022-08-23T09:42:00.683Z,-25.5
2022-08-23T09:44:02.250Z,-25.6
2022-08-23T09:46:03.476Z,-25.7
2022-08-23T09:48:05.061Z,-25.5
2022-08-23T09:50:06.338Z,-25.5
2022-08-23T09:52:07.110Z,-25.6
2022-08-23T09:54:08.204Z,-25.3
2022-08-23T09:56:09.597Z,-25.7
2022-08-23T09:58:10.555Z,-25.6
2022-08-23T10:00:11.981Z,-25.9
2022-08-23T10:02:12.888Z,-25.6
2022-08-23T10:04:13.889Z,-25.6
2022-08-23T10:06:15.117Z,-25.4
2022-08-23T10:08:16.683Z,-25.4
2022-08-23T10:10:18.225Z,-25.6
2022-08-23T10:12:19.778Z,-25.3
2022-08-23T10:16:22.178Z,-25.3
2022-08-23T10:18:24.015Z,-25.7
2022-08-23T10:20:24.972Z,-25.2
2022-08-23T10:22:26.308Z,-25.3
2022-08-23T10:24:27.843Z,-25.4
2022-08-23T10:26:28.731Z,-25.7
2022-08-23T10:32:31.953Z,-25.7
2022-08-23T10:34:33.296Z,-25.4
2022-08-23T10:36:34.546Z,-25.5
2022-08-23T10:38:35.685Z,-25.5
2022-08-23T10:40:37.219Z,-25.3
2022-08-23T10:42:38.470Z,-25.6
2022-08-23T10:44:39.686Z,-25.5
2022-08-23T10:58:47.455Z,-25.7
2022-08-23T11:00:47.805Z,-25.4
2022-08-23T11:02:49.275Z,-25.3
2022-08-23T11:04:50.811Z,-25.6
2022-08-23T11:06:52.134Z,-25.6
2022-08-23T11:08:53.849Z,-25.5
2022-08-23T11:10:56.563Z,-25.4
2022-08-23T11:12:55.960Z,-25.6
2022-08-23T11:14:57.701Z,-25.7
2022-08-23T11:16:59.378Z,-25.7
2022-08-23T11:19:00.191Z,-25.5
2022-08-23T11:21:01.445Z,-25.6
2022-08-23T11:23:02.286Z,-25.5
2022-08-23T11:25:03.627Z,-25.8
2022-08-23T11:27:06.516Z,-25.7
2022-08-23T11:29:06.001Z,-25.5
2022-08-23T11:31:07.412Z,-25.7
2022-08-23T11:33:08.652Z,-25.5
2022-08-23T11:35:10.216Z,-25.7
2022-08-23T11:37:11.287Z,-25.6
2022-08-23T11:39:12.991Z,-25.7
2022-08-23T11:41:14.288Z,-25.4
2022-08-23T11:43:15.080Z,-25.4
2022-08-23T11:45:16.405Z,-25.3
2022-08-23T11:47:17.525Z,-25.7
2022-08-23T11:49:18.975Z,-25.8
2022-08-23T11:51:20.047Z,-25.4
2022-08-23T11:53:21.657Z,-25.3
2022-08-23T11:55:24.236Z,-25.7
2022-08-23T11:57:24.279Z,-25.4
2022-08-23T11:59:25.083Z,-25.3
2022-08-23T12:01:25.909Z,-25.5
2022-08-23T12:03:26.926Z,-25.2
2022-08-23T12:05:28.009Z,-25.5
2022-08-23T12:07:28.975Z,-25.5
2022-08-23T12:13:32.424Z,-25.5
2022-08-23T12:15:33.902Z,-25.5
2022-08-23T12:17:36.782Z,-25.6
2022-08-23T12:19:40.077Z,-25.4
2022-08-23T12:21:38.711Z,-25.6
2022-08-23T12:23:39.975Z,-25.4
2022-08-23T12:25:41.224Z,-25.5
2022-08-23T12:27:42.457Z,-25.9
2022-08-23T12:29:43.648Z,-25.6
2022-08-23T12:31:44.721Z,-25.6
2022-08-23T12:33:46.055Z,-25.5
2022-08-23T12:37:49.094Z,-25.7
2022-08-23T12:39:49.957Z,-25.4
2022-08-23T12:41:51.292Z,-25.6
2022-08-23T12:43:52.840Z,-25.7
2022-08-23T12:45:54.401Z,-25.6
2022-08-23T12:47:55.256Z,-25.5
2022-08-23T12:49:56.468Z,-25.4
2022-08-23T12:51:57.236Z,-25.3
2022-08-23T12:53:58.762Z,-25.4
2022-08-23T12:55:59.528Z,-25.2
2022-08-23T12:58:10.163Z,-25.8
2022-08-23T13:00:16.837Z,-25.7
2022-08-23T13:02:03.566Z,-25.4
2022-08-23T13:04:04.634Z,-25.6
2022-08-23T13:06:06.268Z,-25.6
2022-08-23T13:08:07.905Z,-25.6
2022-08-23T13:10:09.118Z,-25.5
2022-08-23T13:12:10.027Z,-25.7
2022-08-23T13:14:11.357Z,-25.4
2022-08-23T13:16:12.770Z,-25.6
2022-08-23T13:18:14.611Z,-25.6
2022-08-23T13:20:15.415Z,-25.5
2022-08-23T13:22:16.634Z,-25.7
2022-08-23T13:24:17.888Z,-25.4
2022-08-23T13:26:19.082Z,-25.3
2022-08-23T13:28:20.165Z,-25.7
2022-08-23T13:29:03.814Z,-25.6
2022-08-23T13:33:07.666Z,-25.6
2022-08-23T13:35:07.963Z,-25.6
2022-08-23T13:37:08.772Z,-25.6
2022-08-23T13:39:10.265Z,-25.9
2022-08-23T13:41:11.139Z,60.2
2022-08-23T13:43:12.047Z,58.5
2022-08-23T13:49:16.032Z,53.4
2022-08-23T13:51:17.500Z,51.6
2022-08-23T13:53:18.749Z,50.2
2022-08-23T13:57:21.955Z,45.8
2022-08-23T13:59:22.703Z,44.7
2022-08-23T14:03:25.614Z,40.59
2022-08-23T14:05:26.493Z,38.4
2022-08-23T14:07:27.824Z,37.5
2022-08-23T14:09:29.409Z,35.4
2022-08-23T14:11:30.810Z,33.09
2022-08-23T14:15:57.270Z,30.6
2022-08-23T14:21:38.045Z,25.3
2022-08-23T14:23:38.885Z,24.3
2022-08-23T14:25:40.378Z,21.7
2022-08-23T14:29:42.773Z,20.9
2022-08-23T14:31:43.691Z,19.5
2022-08-23T14:33:45.120Z,17.5
2022-08-23T14:35:46.055Z,16.9
2022-08-23T14:38:04.457Z,15.5
2022-08-23T14:39:49.074Z,15.8
2022-08-23T14:41:52.179Z,14.6
2022-08-23T14:43:50.726Z,12
2022-08-23T14:45:51.533Z,10.3
2022-08-23T14:47:52.636Z,10.4
2022-08-23T14:49:54.327Z,9.2
2022-08-23T14:51:55.365Z,9.89
2022-08-23T14:53:56.126Z,9
2022-08-23T14:56:12.558Z,-25.7
2022-08-23T14:57:57.911Z,-25.6
2022-08-23T14:59:59.398Z,-25.6
2022-08-23T15:02:00.885Z,-25.5
2022-08-23T15:04:01.772Z,-25.4
2022-08-23T15:06:02.434Z,-25.4
2022-08-23T15:08:03.773Z,-25.5
2022-08-23T15:14:06.716Z,-25.7
2022-08-23T15:16:08.197Z,-25.5
2022-08-23T15:18:09.340Z,-25.5
2022-08-23T15:20:10.568Z,-25.4
2022-08-23T15:22:13.905Z,-25.6
2022-08-23T15:24:13.931Z,-25.5
2022-08-23T15:26:15.128Z,-25.5
2022-08-23T15:28:16.394Z,-25.5
2022-08-23T15:30:17.763Z,-25.6
2022-08-23T15:32:22.474Z,-25.4
2022-08-23T15:34:20.696Z,-25.5
2022-08-23T15:36:22.333Z,-25.4
2022-08-23T15:38:23.455Z,-25.5
2022-08-23T15:40:25.539Z,-25.7
2022-08-23T15:44:27.444Z,-25.5
2022-08-23T15:46:28.332Z,-25.7
2022-08-23T15:48:29.078Z,-25.4
2022-08-23T15:50:30.035Z,-25.4
2022-08-23T15:52:31.615Z,-25.3
2022-08-23T15:54:32.552Z,-25.4
2022-08-23T15:56:33.557Z,-25.4
2022-08-23T16:00:35.983Z,-25.3
2022-08-23T16:02:57.579Z,-25.7
2022-08-23T16:04:38.631Z,-25.4
2022-08-23T16:06:40.079Z,-25.4
2022-08-23T16:08:41.150Z,-25.5
2022-08-23T16:12:43.127Z,-25.7
2022-08-23T16:14:44.034Z,-25.4
2022-08-23T16:16:44.903Z,-25.6
2022-08-23T16:18:45.822Z,-25.5
2022-08-23T16:20:47.518Z,-25.6
2022-08-23T16:22:49.178Z,-25.5
2022-08-23T16:28:52.594Z,-25.6
2022-08-23T16:30:54.300Z,-25.5
2022-08-23T16:32:55.486Z,-25.4
2022-08-23T16:34:57.043Z,-25.2
2022-08-23T16:36:58.763Z,-25.6
2022-08-23T16:38:59.645Z,-25.4
2022-08-23T16:43:02.423Z,-25.3
2022-08-23T16:45:03.988Z,-25.2
2022-08-23T16:47:05.549Z,-25.5
2022-08-23T16:49:06.360Z,-25.6
2022-08-23T16:53:09.315Z,-25.7
2022-08-23T16:55:10.743Z,-25.7
2022-08-23T16:57:11.726Z,-25.5
2022-08-23T16:59:12.813Z,-25.5
2022-08-23T17:01:14.035Z,-25.6
2022-08-23T17:03:15.378Z,-25.7
2022-08-23T17:05:16.540Z,-25.5
2022-08-23T17:07:17.939Z,-25.4
2022-08-23T17:09:18.959Z,-25.6
2022-08-23T17:11:20.609Z,-25.5
2022-08-23T17:13:22.211Z,-25.6
2022-08-23T17:15:23.008Z,-25.8
2022-08-23T17:17:23.911Z,-25.7
2022-08-23T17:19:25.241Z,-25.8
2022-08-23T17:21:26.755Z,-25.5
2022-08-23T17:23:27.685Z,-25.4
2022-08-23T17:25:29.403Z,-25.3
2022-08-23T17:27:30.262Z,-25.6
2022-08-23T17:29:34.585Z,-25.3
2022-08-23T17:31:32.900Z,-25.4
2022-08-23T17:33:34.364Z,-25.4
2022-08-23T17:35:35.904Z,-25.2
2022-08-23T17:37:37.506Z,-25.5
2022-08-23T17:41:43.250Z,-25.3
2022-08-23T17:43:41.254Z,-25.6
2022-08-23T17:45:42.673Z,-25.4
2022-08-23T17:47:44.255Z,-25.4
2022-08-23T17:49:45.119Z,-25.3
2022-08-23T17:51:46.227Z,-25.6
2022-08-23T17:53:47.947Z,-25.6
2022-08-23T17:55:49.680Z,-25.5
2022-08-23T17:57:53.155Z,-25.9
2022-08-23T17:59:52.579Z,-25.4
2022-08-23T18:01:53.576Z,-25.5
2022-08-23T18:03:55.328Z,-25.6
2022-08-23T18:09:58.209Z,-25.6
2022-08-23T18:11:59.901Z,-25.6
2022-08-23T18:14:01.418Z,-25.8
2022-08-23T18:16:02.310Z,-25.8
2022-08-23T18:18:04.036Z,-25.6
2022-08-23T18:20:04.981Z,-25.6
2022-08-23T18:22:06.594Z,-25.4
2022-08-23T18:24:07.716Z,-25.7
2022-08-23T18:26:09.413Z,-25.7
2022-08-23T18:30:12.055Z,-25.9
2022-08-23T18:32:13.191Z,-25.5
2022-08-23T18:34:14.050Z,-25.5
2022-08-23T18:36:15.296Z,-25.7
2022-08-23T18:40:17.389Z,-25.5
2022-08-23T18:42:18.341Z,-25.6
2022-08-23T18:44:19.155Z,-25.7
2022-08-23T18:46:20.654Z,-25.6
2022-08-23T18:50:23.693Z,-25.6
2022-08-23T18:52:24.556Z,-25.7
2022-08-23T18:54:25.928Z,-25.8
2022-08-23T18:56:26.891Z,-25.7
2022-08-23T18:58:28.220Z,-25.5
2022-08-23T19:00:29.324Z,-25.5
2022-08-23T19:02:31.051Z,-25.7
2022-08-23T19:04:31.968Z,-25.8
2022-08-23T19:08:34.454Z,-25.3
2022-08-23T19:10:36.087Z,-25.6
2022-08-23T19:12:37.022Z,-25.5
2022-08-23T19:14:38.488Z,-25.5
2022-08-23T19:16:39.468Z,-25.4
2022-08-23T19:18:40.681Z,-25.6
2022-08-23T19:20:41.567Z,-25.6
2022-08-23T19:22:42.785Z,-25.5
2022-08-23T19:24:43.877Z,-25.5
2022-08-23T19:26:44.816Z,-25.6
2022-08-23T19:28:46.031Z,-25.6
2022-08-23T19:30:47.862Z,-25.7
2022-08-23T19:32:48.852Z,-25.3
2022-08-23T19:34:50.395Z,-25.7
2022-08-23T19:36:59.062Z,-25.5
2022-08-23T19:38:52.988Z,-25.6
2022-08-23T19:40:54.537Z,-25.7
2022-08-23T19:42:56.031Z,-25.6
2022-08-23T19:44:57.821Z,-25.5
2022-08-23T19:51:01.626Z,-25.4
2022-08-23T19:53:03.447Z,-25.5
2022-08-23T19:55:05.427Z,-25.4
2022-08-23T19:57:06.236Z,-25.9
2022-08-23T19:59:07.256Z,-25.6
2022-08-23T20:01:09.032Z,-25.8
2022-08-23T20:05:11.504Z,-25.8
2022-08-23T20:07:12.371Z,-25.4
2022-08-23T20:11:14.716Z,-25.8
2022-08-23T20:13:15.581Z,-25.5
2022-08-23T20:13:59.350Z,-25.4
2022-08-23T20:16:00.635Z,-25.5
2022-08-23T20:18:02.330Z,-25.7
2022-08-23T20:20:04.187Z,-25.5
2022-08-23T20:22:05.107Z,-25.4
2022-08-23T20:24:05.967Z,-25.6
2022-08-23T20:26:07.373Z,-25.7
2022-08-23T20:28:08.927Z,-25.5
2022-08-23T20:30:10.028Z,-25.7
2022-08-23T20:32:11.532Z,-25.5
2022-08-23T20:34:12.903Z,-25.5
2022-08-23T20:36:13.994Z,-25.5
2022-08-23T20:38:22.326Z,-25.8
2022-08-23T20:40:17.098Z,-25.6
2022-08-23T20:42:18.308Z,-25.7
2022-08-23T20:44:20.104Z,-25.6
2022-08-23T20:46:21.129Z,-25.8
2022-08-23T20:48:22.560Z,-25.6
2022-08-23T20:50:23.839Z,-25.6
2022-08-23T20:52:25.253Z,-25.4
2022-08-23T20:54:26.302Z,-25.7
2022-08-23T20:56:27.809Z,-25.5
2022-08-23T20:58:29.093Z,-25.7
2022-08-23T21:00:30.325Z,-25.7
2022-08-23T21:02:31.037Z,-25.6
2022-08-23T21:04:32.787Z,-25.6
2022-08-23T21:06:33.989Z,-25.8
2022-08-23T21:08:35.666Z,-25.6
2022-08-23T21:10:36.822Z,-25.7
2022-08-23T21:14:39.526Z,-25.7
2022-08-23T21:16:40.531Z,-25.5
2022-08-23T21:18:41.733Z,-25.7
2022-08-23T21:20:42.651Z,-25.6
2022-08-23T21:22:44.288Z,-25.7
2022-08-23T21:24:45.477Z,-25.7
2022-08-23T21:26:46.819Z,-25.7
2022-08-23T21:28:47.716Z,-25.2
2022-08-23T21:30:49.062Z,-25.7
2022-08-23T21:32:49.931Z,-25.6
2022-08-23T21:34:51.338Z,-25.7
2022-08-23T21:36:52.728Z,-25.7
2022-08-23T21:40:55.944Z,-25.4
2022-08-23T21:42:57.379Z,-25.9
2022-08-23T21:47:00.397Z,-25.5
2022-08-23T21:49:01.960Z,-25.6
2022-08-23T21:51:03.731Z,-25.8
2022-08-23T21:53:05.122Z,-25.6
2022-08-23T21:55:06.829Z,-25.7
2022-08-23T21:57:07.746Z,-25.5
2022-08-23T21:59:08.854Z,-25.3
2022-08-23T22:01:10.008Z,-25.4
2022-08-23T22:03:11.208Z,-25.6
2022-08-23T22:09:15.554Z,-25.6
2022-08-23T22:11:16.622Z,-25.5
2022-08-23T22:13:18.364Z,-25.6
2022-08-23T22:15:19.566Z,-25.4
2022-08-23T22:17:20.981Z,-25.6
2022-08-23T22:19:23.259Z,-25.6
2022-08-23T22:21:24.196Z,-25.7
2022-08-23T22:23:25.356Z,-25.6
2022-08-23T22:25:26.536Z,-25.7
2022-08-23T22:27:27.635Z,-25.9
2022-08-23T22:29:29.498Z,-25.7
2022-08-23T22:31:31.294Z,-25.6
2022-08-23T22:33:32.186Z,-25.8
2022-08-23T22:35:33.262Z,-25.7
2022-08-23T22:37:34.914Z,-25.5
2022-08-23T22:39:36.558Z,-25.7
2022-08-23T22:41:38.003Z,-25.7
2022-08-23T22:43:39.720Z,-25.5
2022-08-23T22:45:44.545Z,-25.7
2022-08-23T22:47:42.462Z,-25.5
2022-08-23T22:49:43.662Z,-25.7
2022-08-23T22:51:45.347Z,-25.8
2022-08-23T22:53:46.631Z,-25.7
2022-08-23T22:55:48.068Z,-25.5
2022-08-23T23:01:52.224Z,-25.8
2022-08-23T23:03:53.778Z,-25.3
2022-08-23T23:05:55.513Z,-25.6
2022-08-23T23:07:56.428Z,-25.8
2022-08-23T23:09:57.706Z,-25.7
2022-08-23T23:11:59.540Z,-25.8
2022-08-23T23:14:00.763Z,-25.6
2022-08-23T23:34:14.562Z,-25.6
2022-08-23T23:36:16.482Z,-25.7
2022-08-23T23:38:17.443Z,-25.6
2022-08-23T23:42:20.148Z,-25.6
2022-08-23T23:44:22.418Z,-25.7
2022-08-23T23:46:22.946Z,-25.5
2022-08-23T23:48:24.148Z,-25.6
2022-08-23T23:50:25.415Z,-25.7
2022-08-23T23:52:26.793Z,-25.6
2022-08-23T23:54:28.504Z,-25.6
2022-08-23T23:56:30.027Z,-25.6
2022-08-23T23:58:31.752Z,-25.8
